Time;durP1;ratioP1;P1;durP2;ratioP2;P2;SDS_P1;SDS_P2;PMS_P1;PMS_P2;Temp;Humidity;BMP_temperature;BMP_pressure;BME280_temperature;BME280_humidity;BME280_pressure;Samples;Min_cycle;Max_cycle;Signal;HPM_P1;HPM_P2
2021/05/15 00:01:33;;;;;;;;;3.00;2.67;;;;;19.19;60.36;97743.06;4921814;28;103688;-73
2021/05/15 00:04:01;;;;;;;;;3.00;2.00;;;;;19.19;60.27;97732.09;4932548;28;102861;-72
2021/05/15 00:06:27;;;;;;;;;2.00;2.00;;;;;19.18;59.98;97733.22;4912812;28;102863;-72
2021/05/15 00:08:52;;;;;;;;;3.00;2.00;;;;;19.19;60.16;97740.31;4932941;28;102369;-72
2021/05/15 00:11:18;;;;;;;;;1.00;1.00;;;;;19.19;60.28;97732.09;4906554;28;102864;-72
2021/05/15 00:13:45;;;;;;;;;2.33;2.00;;;;;19.18;60.13;97735.94;4887805;28;104243;-73
2021/05/15 00:16:11;;;;;;;;;1.00;1.00;;;;;19.19;60.17;97743.06;4921871;28;103531;-73
2021/05/15 00:18:41;;;;;;;;;2.00;2.00;;;;;19.19;60.16;97737.56;4898278;28;102748;-73
2021/05/15 00:21:12;;;;;;;;;2.00;2.00;;;;;19.17;60.14;97731.56;4935215;28;102763;-73
2021/05/15 00:23:41;;;;;;;;;2.00;2.00;;;;;19.16;60.32;97736.22;4939324;28;102595;-73
2021/05/15 00:26:12;;;;;;;;;2.00;2.00;;;;;19.16;60.07;97740.88;4936789;28;102317;-74
2021/05/15 00:28:43;;;;;;;;;2.00;2.00;;;;;19.17;60.12;97734.31;4924298;28;103875;-74
2021/05/15 00:31:11;;;;;;;;;1.33;1.33;;;;;19.15;59.98;97737.31;4929897;28;104201;-74
2021/05/15 00:33:42;;;;;;;;;2.00;2.00;;;;;19.16;60.08;97736.22;4919279;28;102562;-74
2021/05/15 00:36:13;;;;;;;;;2.33;2.00;;;;;19.14;60.09;97738.41;4919004;28;104005;-74
2021/05/15 00:38:44;;;;;;;;;1.00;1.00;;;;;19.14;60.29;97741.13;4931088;28;103621;-74
2021/05/15 00:41:13;;;;;;;;;3.00;3.00;;;;;19.15;60.31;97741.97;4919403;28;104073;-75
2021/05/15 00:46:45;;;;;;;;;2.00;2.00;;;;;19.14;60.22;97735.66;4856288;28;102842;-74
2021/05/15 00:49:11;;;;;;;;;2.67;1.33;;;;;19.14;60.04;97729.34;4924268;28;102458;-74
2021/05/15 00:51:44;;;;;;;;;2.00;2.00;;;;;19.15;59.92;97737.31;4933738;28;104310;-74
2021/05/15 00:54:13;;;;;;;;;2.00;1.33;;;;;19.13;59.90;97738.69;4925983;28;104423;-74
2021/05/15 00:56:43;;;;;;;;;2.00;1.33;;;;;19.13;60.10;97735.97;4930972;28;102723;-74
2021/05/15 00:59:16;;;;;;;;;3.33;2.00;;;;;19.11;60.21;97733.47;4922932;28;104437;-74
2021/05/15 01:01:47;;;;;;;;;1.67;1.67;;;;;19.13;60.14;97727.75;4912610;28;102217;-74
2021/05/15 01:04:15;;;;;;;;;2.00;1.00;;;;;19.12;60.23;97732.41;4925483;28;102504;-74
2021/05/15 01:06:47;;;;;;;;;1.00;1.00;;;;;19.11;60.07;97732.66;4931552;28;102354;-74
2021/05/15 01:09:14;;;;;;;;;3.00;2.00;;;;;19.11;60.17;97727.19;4915639;28;102192;-74
2021/05/15 01:11:46;;;;;;;;;2.00;2.00;;;;;19.10;60.32;97733.75;4917269;28;103105;-74
2021/05/15 01:14:19;;;;;;;;;1.33;1.33;;;;;19.10;60.19;97736.50;4924965;28;103048;-74
2021/05/15 01:16:53;;;;;;;;;1.00;1.00;;;;;19.10;60.32;97731.00;4901868;28;102981;-74
2021/05/15 01:19:22;;;;;;;;;1.00;1.00;;;;;19.10;60.23;97744.72;4896211;28;103084;-74
2021/05/15 01:21:51;;;;;;;;;1.67;1.67;;;;;19.10;60.13;97744.72;4901258;28;102226;-74
2021/05/15 01:24:22;;;;;;;;;3.00;2.00;;;;;19.11;60.49;97751.84;4927298;28;107046;-74
2021/05/15 01:26:51;;;;;;;;;2.00;2.00;;;;;19.08;60.19;97746.94;4932543;28;102327;-74
2021/05/15 01:29:22;;;;;;;;;2.67;2.67;;;;;19.08;60.17;97749.66;4925803;28;105075;-74
2021/05/15 01:31:53;;;;;;;;;1.67;1.67;;;;;19.07;60.53;97745.28;4919743;28;103808;-74
2021/05/15 01:34:23;;;;;;;;;2.00;2.00;;;;;19.05;60.26;97752.94;4914191;28;108454;-74
2021/05/15 01:36:52;;;;;;;;;1.00;1.00;;;;;19.05;60.28;97744.72;4922209;28;104661;-74
2021/05/15 01:39:23;;;;;;;;;2.00;2.00;;;;;19.07;60.17;97750.75;4920559;28;103335;-74
2021/05/15 01:41:55;;;;;;;;;2.00;1.00;;;;;19.04;60.13;97746.66;4920888;28;103867;-74
2021/05/15 01:44:26;;;;;;;;;2.00;2.00;;;;;19.04;60.58;97748.56;4908788;28;107485;-74
2021/05/15 01:46:53;;;;;;;;;1.00;1.00;;;;;19.03;60.41;97739.53;4906146;28;102589;-74
2021/05/15 01:49:24;;;;;;;;;2.00;1.00;;;;;19.04;60.26;97745.84;4905179;28;102425;-74
2021/05/15 01:51:55;;;;;;;;;2.00;2.00;;;;;19.04;60.07;97740.34;4919472;28;102722;-74
2021/05/15 01:54:23;;;;;;;;;1.67;1.00;;;;;19.02;60.21;97748.84;4910426;28;107148;-74
2021/05/15 01:56:54;;;;;;;;;2.00;2.00;;;;;19.03;59.96;97747.75;4912652;28;102446;-74
2021/05/15 01:59:24;;;;;;;;;2.00;1.67;;;;;19.03;60.29;97744.19;4899852;28;103694;-74
2021/05/15 02:01:57;;;;;;;;;1.33;1.33;;;;;19.02;59.80;97743.38;4906298;28;102361;-74
2021/05/15 02:04:27;;;;;;;;;2.33;2.00;;;;;19.03;60.10;97735.97;4911561;28;109408;-74
2021/05/15 02:06:59;;;;;;;;;1.67;1.67;;;;;19.01;60.07;97738.97;4911936;28;102395;-74
2021/05/15 02:09:30;;;;;;;;;1.00;1.00;;;;;19.03;60.07;97735.97;4908106;28;102251;-74
2021/05/15 02:12:00;;;;;;;;;2.00;2.00;;;;;19.02;60.11;97737.88;4908518;28;105270;-74
2021/05/15 02:14:32;;;;;;;;;2.00;2.00;;;;;19.01;60.31;97735.41;4911294;28;104053;-74
2021/05/15 02:17:00;;;;;;;;;2.00;2.00;;;;;19.01;60.01;97732.66;4891523;28;102644;-74
2021/05/15 02:19:31;;;;;;;;;2.00;2.00;;;;;19.01;60.14;97732.66;4917926;28;102623;-74
2021/05/15 02:21:59;;;;;;;;;1.33;1.33;;;;;19.00;60.21;97728.31;4910296;28;102977;-74
2021/05/15 02:24:32;;;;;;;;;2.00;2.00;;;;;18.99;60.16;97726.66;4905747;28;104779;-74
2021/05/15 02:26:59;;;;;;;;;2.00;2.00;;;;;18.99;60.06;97727.47;4908790;28;102851;-74
2021/05/15 02:29:27;;;;;;;;;1.00;0.67;;;;;18.98;60.21;97731.31;4906080;28;104509;-74
2021/05/15 02:31:59;;;;;;;;;1.33;1.33;;;;;18.98;60.08;97719.53;4906698;28;104714;-73
2021/05/15 02:34:26;;;;;;;;;2.00;2.00;;;;;18.98;59.93;97725.84;4908677;28;107991;-74
2021/05/15 02:37:00;;;;;;;;;2.00;2.00;;;;;18.97;60.07;97729.66;4925758;28;104496;-74
2021/05/15 02:39:34;;;;;;;;;2.33;2.33;;;;;18.97;60.07;97729.66;4916768;28;102371;-74
2021/05/15 02:42:04;;;;;;;;;1.00;1.00;;;;;18.96;59.89;97733.50;4924137;28;102529;-74
2021/05/15 02:44:41;;;;;;;;;2.67;2.67;;;;;18.97;60.31;97737.06;4927468;28;102518;-74
2021/05/15 02:47:17;;;;;;;;;2.00;2.00;;;;;18.95;60.09;97731.88;4919415;28;102507;-74
2021/05/15 02:49:55;;;;;;;;;1.00;1.00;;;;;18.97;60.13;97739.81;4917509;28;102219;-74
2021/05/15 02:52:24;;;;;;;;;1.67;1.00;;;;;18.97;60.33;97742.53;4919451;28;102204;-74
2021/05/15 02:54:55;;;;;;;;;3.00;2.67;;;;;18.96;60.33;97738.16;4917344;28;107543;-74
2021/05/15 02:57:25;;;;;;;;;1.00;1.00;;;;;18.94;59.91;97746.66;4918559;28;102501;-74
2021/05/15 02:59:55;;;;;;;;;2.33;1.33;;;;;18.93;60.14;97739.53;4916705;28;102397;-74
2021/05/15 03:02:24;;;;;;;;;2.00;1.33;;;;;18.94;59.93;97745.84;4910525;28;102452;-74
2021/05/15 03:04:55;;;;;;;;;3.00;3.00;;;;;18.93;60.13;97744.19;4905556;28;107404;-74
2021/05/15 03:07:21;;;;;;;;;2.00;1.00;;;;;18.94;60.37;97754.06;4891307;28;103893;-74
2021/05/15 03:09:47;;;;;;;;;1.67;1.33;;;;;18.93;59.99;97760.63;4919845;28;102601;-74
2021/05/15 03:12:13;;;;;;;;;2.33;1.00;;;;;18.92;60.10;97754.31;4908351;28;102648;-74
2021/05/15 03:14:39;;;;;;;;;2.67;1.67;;;;;18.93;60.01;97763.38;4917723;28;102448;-74
2021/05/15 03:17:05;;;;;;;;;1.00;1.00;;;;;18.92;60.01;97759.81;4916154;28;102269;-74
2021/05/15 03:19:30;;;;;;;;;1.00;1.00;;;;;18.93;59.76;97771.59;4916905;28;104151;-74
2021/05/15 03:21:56;;;;;;;;;1.33;1.33;;;;;18.92;60.09;97775.41;4927202;28;112719;-74
2021/05/15 03:24:22;;;;;;;;;2.00;2.00;;;;;18.92;60.12;97769.94;4917669;28;112024;-74
2021/05/15 03:26:48;;;;;;;;;2.00;1.00;;;;;18.91;60.39;97768.31;4914573;28;103110;-74
2021/05/15 03:29:14;;;;;;;;;2.00;2.00;;;;;18.91;60.00;97760.09;4917083;28;103608;-74
2021/05/15 03:31:39;;;;;;;;;2.33;2.33;;;;;18.90;60.08;97770.22;4919136;28;102282;-74
2021/05/15 03:34:07;;;;;;;;;2.00;2.00;;;;;18.90;60.12;97763.94;4913790;28;103650;-74
2021/05/15 03:36:34;;;;;;;;;1.67;1.67;;;;;18.92;60.06;97767.19;4919925;28;103093;-74
2021/05/15 03:39:01;;;;;;;;;2.33;2.33;;;;;18.90;60.41;97766.66;4919962;28;102718;-74
2021/05/15 03:41:27;;;;;;;;;3.00;2.00;;;;;18.91;59.85;97763.63;4923092;28;102631;-73
2021/05/15 03:43:53;;;;;;;;;2.00;1.00;;;;;18.90;59.74;97758.44;4922623;28;102444;-74
2021/05/15 03:46:18;;;;;;;;;3.00;2.00;;;;;18.90;59.82;97762.00;4912809;28;103616;-74
2021/05/15 03:48:44;;;;;;;;;1.00;1.00;;;;;18.91;59.71;97768.31;4923960;28;102510;-74
2021/05/15 03:51:10;;;;;;;;;1.67;1.67;;;;;18.91;59.69;97768.31;4916872;28;102511;-74
2021/05/15 03:53:36;;;;;;;;;2.00;2.00;;;;;18.91;59.71;97771.06;4912570;28;105214;-74
2021/05/15 03:56:02;;;;;;;;;3.00;2.00;;;;;18.91;59.71;97765.59;4915749;28;102198;-74
2021/05/15 03:58:28;;;;;;;;;2.00;2.00;;;;;18.89;59.73;97770.50;4926253;28;102408;-73
2021/05/15 04:00:54;;;;;;;;;2.67;2.33;;;;;18.90;59.66;97777.63;4916862;28;103560;-74
2021/05/15 04:03:19;;;;;;;;;1.67;1.33;;;;;18.90;60.00;97772.97;4914833;28;102344;-74
2021/05/15 04:05:45;;;;;;;;;2.00;2.00;;;;;18.89;59.95;97770.50;4917150;28;102709;-74
2021/05/15 04:08:11;;;;;;;;;3.67;2.00;;;;;18.90;59.79;97785.84;4915457;28;103521;-75
2021/05/15 04:10:37;;;;;;;;;2.00;2.00;;;;;18.90;59.57;97786.66;4915054;28;104242;-74
2021/05/15 04:13:14;;;;;;;;;2.00;2.00;;;;;18.90;60.01;97783.94;4912225;28;104604;-74
2021/05/15 04:15:48;;;;;;;;;1.33;1.33;;;;;18.91;60.04;97790.22;4916168;28;102546;-74
2021/05/15 04:18:14;;;;;;;;;2.00;2.00;;;;;18.90;59.55;97792.16;4907122;28;103121;-74
2021/05/15 04:20:41;;;;;;;;;2.67;2.00;;;;;18.89;59.49;97776.81;4920704;28;102474;-74
2021/05/15 04:23:07;;;;;;;;;4.00;2.00;;;;;18.91;59.87;97792.97;4913712;28;103648;-74
2021/05/15 04:25:34;;;;;;;;;1.00;1.00;;;;;18.89;60.04;97784.19;4919312;28;102688;-74
2021/05/15 04:28:00;;;;;;;;;1.67;1.00;;;;;18.88;60.03;97785.28;4917298;28;102611;-74
2021/05/15 04:30:26;;;;;;;;;3.00;2.00;;;;;18.89;59.96;97797.88;4920088;28;103731;-74
2021/05/15 04:32:52;;;;;;;;;2.00;2.00;;;;;18.89;59.53;97797.88;4917548;28;107311;-74
2021/05/15 04:35:17;;;;;;;;;3.00;2.00;;;;;18.88;59.99;97796.25;4915738;28;102634;-74
2021/05/15 04:37:43;;;;;;;;;2.00;2.00;;;;;18.87;59.95;97789.94;4921810;28;102191;-74
2021/05/15 04:40:09;;;;;;;;;2.00;2.00;;;;;18.88;59.87;97801.72;4940591;28;102733;-74
2021/05/15 04:42:38;;;;;;;;;1.00;1.00;;;;;18.89;59.86;97789.66;4928469;28;103242;-74
2021/05/15 04:45:06;;;;;;;;;0.00;0.00;;;;;18.89;59.24;97806.09;4937306;28;102639;-74
2021/05/15 04:47:32;;;;;;;;;1.00;1.00;;;;;18.89;60.08;97801.47;4921830;28;105342;-74
2021/05/15 04:49:58;;;;;;;;;1.00;1.00;;;;;18.88;59.35;97808.03;4925377;28;104102;-74
2021/05/15 04:52:23;;;;;;;;;3.33;2.67;;;;;18.89;59.81;97800.63;4930393;28;102652;-74
2021/05/15 04:54:49;;;;;;;;;1.33;1.33;;;;;18.88;59.84;97802.53;4943561;28;104194;-74
2021/05/15 04:57:16;;;;;;;;;2.00;1.67;;;;;18.89;59.39;97803.38;4914857;28;105001;-74
2021/05/15 04:59:42;;;;;;;;;2.00;2.00;;;;;18.88;59.89;97808.03;4927685;28;104358;-74
2021/05/15 05:02:08;;;;;;;;;3.00;2.33;;;;;18.88;59.85;97804.47;4920930;28;102551;-74
2021/05/15 05:04:34;;;;;;;;;1.67;1.67;;;;;18.89;59.58;97806.09;4930340;28;103191;-74
2021/05/15 05:07:00;;;;;;;;;1.00;1.00;;;;;18.89;59.62;97820.63;4929213;28;107227;-73
2021/05/15 05:09:25;;;;;;;;;2.67;2.00;;;;;18.89;59.24;97819.81;4931349;28;102259;-74
2021/05/15 05:11:51;;;;;;;;;2.00;2.00;;;;;18.90;59.29;97819.53;4925548;28;103571;-74
2021/05/15 05:14:17;;;;;;;;;3.00;2.00;;;;;18.89;59.25;97815.16;4926556;28;103985;-74
2021/05/15 05:16:43;;;;;;;;;3.00;2.00;;;;;18.88;59.65;97815.41;4932453;28;108187;-74
2021/05/15 05:19:11;;;;;;;;;4.33;2.33;;;;;18.89;59.87;97815.16;4920783;28;102219;-74
2021/05/15 05:21:38;;;;;;;;;1.33;1.33;;;;;18.90;59.20;97815.97;4928398;28;103843;-74
2021/05/15 05:24:04;;;;;;;;;1.67;1.67;;;;;18.90;59.68;97816.81;4942897;28;103865;-74
2021/05/15 05:26:34;;;;;;;;;1.00;1.00;;;;;18.89;59.58;97812.41;4933594;28;103643;-74
2021/05/15 05:29:03;;;;;;;;;1.00;1.00;;;;;18.90;59.38;97814.06;4936256;28;102551;-74
2021/05/15 05:31:29;;;;;;;;;2.00;2.00;;;;;18.91;59.48;97818.41;4938375;28;102558;-73
2021/05/15 05:33:56;;;;;;;;;2.00;2.00;;;;;18.91;59.42;97820.38;4940836;28;102518;-74
2021/05/15 05:36:21;;;;;;;;;2.00;2.00;;;;;18.91;60.24;97821.16;4930251;28;102763;-75
2021/05/15 05:38:47;;;;;;;;;1.33;1.00;;;;;18.92;59.66;97825.56;4931173;28;103685;-74
2021/05/15 05:41:13;;;;;;;;;1.33;1.33;;;;;18.92;59.53;97831.03;4932783;28;102722;-74
2021/05/15 05:43:39;;;;;;;;;3.67;2.00;;;;;18.92;59.50;97830.22;4935304;28;102367;-74
2021/05/15 05:46:04;;;;;;;;;4.00;3.00;;;;;18.94;59.51;97828.03;4934489;28;102478;-74
2021/05/15 05:48:31;;;;;;;;;2.00;1.33;;;;;18.93;59.37;97827.22;4931774;28;102220;-74
2021/05/15 05:50:57;;;;;;;;;2.33;2.00;;;;;18.96;59.72;97839.53;4922824;28;103972;-74
2021/05/15 05:53:23;;;;;;;;;2.00;2.00;;;;;18.94;59.46;97836.25;4934389;28;102739;-74
2021/05/15 05:55:49;;;;;;;;;1.33;1.33;;;;;18.94;59.41;97836.25;4939046;28;104264;-72
2021/05/15 05:58:14;;;;;;;;;3.33;2.00;;;;;18.96;60.06;97836.78;4939026;28;102154;-73
2021/05/15 06:00:40;;;;;;;;;2.00;2.00;;;;;18.95;59.38;97836.00;4932589;28;102584;-72
2021/05/15 06:03:06;;;;;;;;;2.00;2.00;;;;;18.96;59.62;97831.31;4929290;28;103336;-73
2021/05/15 06:05:32;;;;;;;;;2.00;1.00;;;;;18.96;59.96;97836.78;4923903;28;103680;-72
2021/05/15 06:08:10;;;;;;;;;2.00;1.00;;;;;18.96;59.94;97839.53;4945454;28;102689;-73
2021/05/15 06:10:37;;;;;;;;;2.67;2.00;;;;;18.98;59.78;97823.66;4858497;28;108870;-72
2021/05/15 06:13:03;;;;;;;;;2.00;2.00;;;;;18.97;59.81;97832.94;4925110;28;104600;-72
2021/05/15 06:15:29;;;;;;;;;2.00;2.00;;;;;18.98;59.86;97840.09;4930454;28;102497;-73
2021/05/15 06:17:55;;;;;;;;;1.00;1.00;;;;;18.99;59.86;97830.78;4946423;28;102204;-73
2021/05/15 06:20:21;;;;;;;;;2.00;2.00;;;;;18.99;59.67;97841.75;4934865;28;102400;-72
2021/05/15 06:22:47;;;;;;;;;1.00;1.00;;;;;18.98;60.12;97842.81;4939064;28;103514;-72
2021/05/15 06:25:13;;;;;;;;;1.67;1.67;;;;;19.01;59.93;97845.00;4922264;28;105886;-74
2021/05/15 06:27:39;;;;;;;;;2.00;2.00;;;;;19.00;60.20;97846.13;4923793;28;105495;-74
2021/05/15 06:30:05;;;;;;;;;2.00;2.00;;;;;19.00;59.65;97846.13;4939381;28;102553;-74
2021/05/15 06:32:31;;;;;;;;;1.00;1.00;;;;;18.97;59.93;97850.22;4920158;28;103738;-74
2021/05/15 06:34:57;;;;;;;;;2.00;2.00;;;;;19.01;59.69;97851.31;4926573;28;102912;-74
2021/05/15 06:37:23;;;;;;;;;1.67;1.67;;;;;19.02;59.70;97849.41;4935620;28;102440;-74
2021/05/15 06:39:49;;;;;;;;;2.00;1.33;;;;;19.00;59.99;97844.19;4896455;28;104639;-74
2021/05/15 06:42:15;;;;;;;;;2.00;2.00;;;;;19.02;60.07;97846.66;4896261;28;104082;-74
2021/05/15 06:44:41;;;;;;;;;1.00;1.00;;;;;19.02;59.93;97847.47;4898651;28;103988;-74
2021/05/15 06:47:06;;;;;;;;;2.00;1.67;;;;;19.03;60.02;97854.63;4890314;28;102421;-74
2021/05/15 06:49:32;;;;;;;;;3.00;2.33;;;;;19.03;60.18;97849.13;4904686;28;103127;-74
2021/05/15 06:51:58;;;;;;;;;1.00;1.00;;;;;19.04;60.07;97841.75;4898483;28;102391;-74
2021/05/15 06:54:24;;;;;;;;;2.00;2.00;;;;;19.03;59.91;97849.13;4881979;28;103685;-74
2021/05/15 06:56:53;;;;;;;;;3.00;2.00;;;;;19.05;59.79;97843.38;4903825;28;104207;-76
2021/05/15 06:59:18;;;;;;;;;1.67;1.67;;;;;19.05;59.97;97843.38;4890522;28;102514;-75
2021/05/15 07:01:45;;;;;;;;;3.00;3.00;;;;;19.06;59.66;97840.34;4889655;28;103216;-75
2021/05/15 07:04:11;;;;;;;;;1.33;1.00;;;;;19.04;59.66;97852.69;4894961;28;103452;-75
2021/05/15 07:06:37;;;;;;;;;2.00;2.00;;;;;19.04;59.58;97842.56;4890815;28;102151;-74
2021/05/15 07:09:03;;;;;;;;;3.00;2.00;;;;;19.03;59.65;97835.44;4897868;28;102298;-74
2021/05/15 07:11:29;;;;;;;;;2.00;2.00;;;;;19.06;59.67;97836.78;4899245;28;102590;-74
2021/05/15 07:13:55;;;;;;;;;2.33;1.67;;;;;19.08;59.59;97849.13;4887812;28;105211;-74
2021/05/15 07:16:20;;;;;;;;;2.00;2.00;;;;;19.08;59.58;97846.41;4904465;28;104150;-74
2021/05/15 07:18:46;;;;;;;;;3.33;2.33;;;;;19.10;59.72;97840.63;4891664;28;104183;-74
2021/05/15 07:21:12;;;;;;;;;1.00;1.00;;;;;19.10;59.87;97844.19;4891735;28;102725;-74
2021/05/15 07:23:38;;;;;;;;;2.67;2.00;;;;;19.08;59.91;97846.41;4890817;28;102597;-74
2021/05/15 07:26:07;;;;;;;;;2.00;2.00;;;;;19.11;59.70;97851.31;4880703;28;103542;-74
2021/05/15 07:28:37;;;;;;;;;2.00;2.00;;;;;19.12;59.68;97841.19;4873782;28;104102;-74
2021/05/15 07:31:09;;;;;;;;;1.00;1.00;;;;;19.13;59.67;97842.84;4880690;28;102633;-74
2021/05/15 07:33:37;;;;;;;;;2.00;2.00;;;;;19.13;59.99;97840.91;4882884;28;104981;-74
2021/05/15 07:36:03;;;;;;;;;2.00;2.00;;;;;19.13;59.71;97848.31;4898178;28;102480;-74
2021/05/15 07:38:29;;;;;;;;;2.33;2.33;;;;;19.14;59.70;97855.41;4914454;28;102580;-74
2021/05/15 07:40:55;;;;;;;;;2.00;1.33;;;;;19.14;59.93;97845.28;4933598;28;102466;-74
2021/05/15 07:43:25;;;;;;;;;2.00;2.00;;;;;19.13;58.60;97846.41;4921653;28;103612;-75
2021/05/15 07:45:55;;;;;;;;;5.00;4.67;;;;;18.97;55.22;97844.75;4929029;28;103765;-74
2021/05/15 07:48:28;;;;;;;;;4.00;4.00;;;;;18.87;55.58;97850.19;4927111;28;103010;-75
2021/05/15 07:50:59;;;;;;;;;5.33;5.33;;;;;18.64;53.03;97846.06;4928002;28;102531;-75
2021/05/15 07:53:25;;;;;;;;;7.00;7.00;;;;;18.48;52.24;97855.31;4922696;28;102287;-76
2021/05/15 07:55:51;;;;;;;;;5.33;5.33;;;;;18.40;52.43;97838.59;4924148;28;102355;-76
2021/05/15 07:58:17;;;;;;;;;7.33;7.33;;;;;18.35;52.84;97850.34;4917514;28;104499;-77
2021/05/15 08:00:43;;;;;;;;;5.00;5.00;;;;;18.38;51.80;97841.59;4930045;28;102650;-76
2021/05/15 08:03:08;;;;;;;;;6.00;6.00;;;;;18.41;53.40;97846.56;4921701;28;102487;-75
2021/05/15 08:05:34;;;;;;;;;5.00;5.00;;;;;18.49;53.23;97846.03;4922434;28;102372;-75
2021/05/15 08:08:02;;;;;;;;;9.00;6.00;;;;;18.56;53.93;97838.38;4910546;28;104546;-75
2021/05/15 08:10:28;;;;;;;;;5.67;5.33;;;;;18.64;53.37;97840.59;4918561;28;102205;-75
2021/05/15 08:12:54;;;;;;;;;7.00;6.00;;;;;18.69;54.23;97837.03;4921084;28;102546;-75
2021/05/15 08:15:20;;;;;;;;;4.67;4.00;;;;;18.73;54.29;97848.28;4928027;28;102604;-75
2021/05/15 08:17:46;;;;;;;;;4.67;4.67;;;;;18.77;54.44;97843.91;4927422;28;102748;-75
2021/05/15 08:20:12;;;;;;;;;5.67;5.67;;;;;18.80;54.54;97843.34;4921540;28;104318;-75
2021/05/15 08:22:37;;;;;;;;;6.33;5.33;;;;;18.83;54.57;97845.53;4934156;28;102500;-75
2021/05/15 08:25:05;;;;;;;;;6.33;6.00;;;;;18.86;55.54;97853.22;4925769;28;104212;-75
2021/05/15 08:27:30;;;;;;;;;6.67;6.33;;;;;18.85;55.70;97851.59;4929434;28;104501;-76
2021/05/15 08:29:59;;;;;;;;;4.67;4.67;;;;;18.81;53.59;97847.75;4926100;28;102513;-76
2021/05/15 08:32:24;;;;;;;;;6.00;5.00;;;;;18.75;52.45;97855.13;4899377;28;102151;-76
2021/05/15 08:34:50;;;;;;;;;5.00;5.00;;;;;18.72;52.03;97847.47;4896423;28;102497;-76
2021/05/15 08:37:16;;;;;;;;;5.00;5.00;;;;;18.67;51.79;97851.03;4918347;28;103011;-76
2021/05/15 08:39:42;;;;;;;;;8.67;7.33;;;;;18.59;50.84;97854.28;4934501;28;102681;-76
2021/05/15 08:42:08;;;;;;;;;5.00;4.00;;;;;18.60;51.22;97853.19;4940740;28;102630;-76
2021/05/15 08:44:36;;;;;;;;;7.00;6.00;;;;;18.61;52.76;97856.75;4925411;28;102390;-75
2021/05/15 08:47:02;;;;;;;;;5.67;5.67;;;;;18.63;52.13;97849.09;4916033;28;103639;-76
2021/05/15 08:49:27;;;;;;;;;5.33;5.00;;;;;18.63;51.73;97844.44;4905517;28;102621;-76
2021/05/15 08:51:53;;;;;;;;;5.00;4.33;;;;;18.64;51.20;97862.50;4919592;28;103539;-76
2021/05/15 08:54:22;;;;;;;;;7.00;5.67;;;;;18.64;51.25;97857.00;4934919;28;102719;-76
2021/05/15 08:56:51;;;;;;;;;6.67;6.33;;;;;18.61;49.95;97845.78;4930925;28;102707;-76
2021/05/15 08:59:17;;;;;;;;;5.33;5.00;;;;;18.63;51.60;97854.56;4922725;28;104697;-76
2021/05/15 09:01:45;;;;;;;;;6.33;6.00;;;;;18.64;51.04;97854.28;4916076;28;102730;-76
2021/05/15 09:04:11;;;;;;;;;5.00;4.67;;;;;18.67;51.33;97851.03;4925819;28;103854;-76
2021/05/15 09:06:40;;;;;;;;;6.00;5.00;;;;;18.67;49.77;97852.94;4926346;28;104365;-76
2021/05/15 09:09:08;;;;;;;;;5.67;5.00;;;;;18.68;50.80;97847.19;4929630;28;104065;-76
2021/05/15 09:11:35;;;;;;;;;5.00;4.33;;;;;18.69;50.75;97856.19;4927644;28;103102;-75
2021/05/15 09:14:03;;;;;;;;;4.33;4.00;;;;;18.70;51.51;97855.94;4922186;28;102662;-75
2021/05/15 09:16:31;;;;;;;;;4.00;4.00;;;;;18.73;51.50;97844.44;4939663;28;103050;-76
2021/05/15 09:19:05;;;;;;;;;5.67;5.00;;;;;18.71;50.59;97841.16;4919861;28;103348;-76
2021/05/15 09:21:34;;;;;;;;;5.00;4.00;;;;;18.73;49.96;97845.56;4918178;28;102116;-75
2021/05/15 09:24:05;;;;;;;;;7.33;6.67;;;;;18.67;48.58;97845.53;4921133;28;103667;-76
2021/05/15 09:26:33;;;;;;;;;4.00;4.00;;;;;18.71;49.29;97849.38;4912135;28;108915;-75
2021/05/15 09:29:00;;;;;;;;;4.33;4.33;;;;;18.73;49.99;97845.56;4920052;28;102457;-76
2021/05/15 09:31:30;;;;;;;;;4.00;3.67;;;;;18.70;48.73;97841.41;4932160;28;102611;-76
2021/05/15 09:34:07;;;;;;;;;4.67;4.00;;;;;18.68;49.17;97847.19;4909397;28;102168;-76
2021/05/15 09:36:35;;;;;;;;;4.00;4.00;;;;;18.69;49.27;97854.28;4930434;28;108756;-75
2021/05/15 09:39:27;;;;;;;;;5.00;4.67;;;;;18.65;48.10;97839.50;4936782;28;104719;-75
2021/05/15 09:42:03;;;;;;;;;3.00;3.00;;;;;18.64;47.18;97840.59;4878546;28;104653;-76
2021/05/15 09:44:49;;;;;;;;;3.67;3.67;;;;;18.63;46.86;97840.88;4913570;28;104170;-76
2021/05/15 09:47:19;;;;;;;;;4.33;4.33;;;;;18.61;46.97;97845.78;4856404;28;107691;-76
2021/05/15 09:49:51;;;;;;;;;5.00;4.00;;;;;18.62;46.65;97853.75;4930354;28;104753;-76
2021/05/15 09:52:18;;;;;;;;;4.00;3.00;;;;;18.65;47.27;97842.25;4916131;28;105872;-76
2021/05/15 09:54:45;;;;;;;;;3.00;3.00;;;;;18.69;47.74;97840.59;4924696;28;102623;-77
2021/05/15 09:57:15;;;;;;;;;2.33;2.33;;;;;18.77;47.19;97839.25;4925528;28;104098;-76
2021/05/15 09:59:44;;;;;;;;;3.33;2.33;;;;;18.83;48.10;97845.53;4926475;28;103614;-77
2021/05/15 10:02:16;;;;;;;;;3.00;3.00;;;;;18.85;46.99;97837.88;4929091;28;103514;-76
2021/05/15 10:04:45;;;;;;;;;3.00;3.00;;;;;18.84;46.85;97841.72;4914175;28;104119;-76
2021/05/15 10:07:16;;;;;;;;;3.00;3.00;;;;;18.83;48.19;97840.88;4918962;28;104266;-76
2021/05/15 10:09:43;;;;;;;;;4.00;4.00;;;;;18.88;46.54;97838.16;4928407;28;105463;-76
2021/05/15 10:12:13;;;;;;;;;4.00;4.00;;;;;18.90;48.09;97843.38;4934410;28;103546;-76
2021/05/15 10:14:40;;;;;;;;;4.00;4.00;;;;;18.90;47.74;97837.91;4935352;28;103862;-75
2021/05/15 10:17:09;;;;;;;;;4.00;4.00;;;;;18.91;45.56;97840.34;4920654;28;103097;-76
2021/05/15 10:19:39;;;;;;;;;4.00;4.00;;;;;18.90;44.67;97840.63;4918161;28;103728;-76
2021/05/15 10:22:06;;;;;;;;;3.67;3.33;;;;;18.88;44.71;97829.94;4926654;28;103404;-76
2021/05/15 10:24:35;;;;;;;;;3.00;3.00;;;;;18.87;44.70;97830.19;4930468;28;104220;-74
2021/05/15 10:27:13;;;;;;;;;3.67;3.67;;;;;18.89;45.10;97833.50;4932571;28;108950;-74
2021/05/15 10:29:46;;;;;;;;;3.00;3.00;;;;;18.91;46.27;97831.31;4870665;28;102809;-74
2021/05/15 10:32:22;;;;;;;;;4.00;4.00;;;;;18.94;46.63;97812.41;4928273;28;102738;-74
2021/05/15 10:35:00;;;;;;;;;3.00;3.00;;;;;18.97;45.75;97824.72;4917098;28;103944;-74
2021/05/15 10:37:29;;;;;;;;;3.33;3.33;;;;;18.95;44.86;97824.19;4922457;28;104058;-74
2021/05/15 10:39:57;;;;;;;;;4.00;4.00;;;;;18.96;44.80;97825.81;4923534;28;102518;-75
2021/05/15 10:42:31;;;;;;;;;5.33;4.00;;;;;18.95;42.35;97814.06;4909235;28;102446;-72
2021/05/15 10:45:00;;;;;;;;;3.00;3.00;;;;;18.93;43.38;97807.19;4920621;28;102694;-75
2021/05/15 10:47:27;;;;;;;;;5.67;4.33;;;;;19.02;43.93;97814.59;4903545;28;104494;-75
2021/05/15 10:50:21;;;;;;;;;3.00;3.00;;;;;19.09;44.53;97808.88;4922452;28;110540;-75
2021/05/15 10:52:49;;;;;;;;;4.67;4.67;;;;;19.10;45.37;97799.53;4854817;28;102341;-74
2021/05/15 10:55:34;;;;;;;;;3.33;3.33;;;;;19.14;45.77;97795.13;4933566;28;102907;-75
2021/05/15 10:58:10;;;;;;;;;5.00;4.00;;;;;19.14;45.37;97793.22;4921020;28;109430;-74
2021/05/15 11:00:38;;;;;;;;;3.67;3.67;;;;;19.19;45.12;97789.66;4919370;28;102989;-74
2021/05/15 11:03:05;;;;;;;;;3.67;3.67;;;;;19.22;44.05;97791.03;4918995;28;102773;-73
2021/05/15 11:05:43;;;;;;;;;4.00;3.67;;;;;19.25;43.58;97782.25;4922692;28;102783;-77
2021/05/15 11:08:25;;;;;;;;;3.00;3.00;;;;;19.27;44.46;97778.16;4872607;28;108985;-75
2021/05/15 11:10:53;;;;;;;;;3.33;3.00;;;;;19.27;44.71;97778.16;4922643;28;102782;-75
2021/05/15 11:13:21;;;;;;;;;3.67;3.00;;;;;19.30;44.76;97772.09;4928727;28;104399;-76
2021/05/15 11:15:49;;;;;;;;;5.00;4.00;;;;;19.28;44.34;97765.22;4926400;28;102241;-76
2021/05/15 11:18:27;;;;;;;;;4.67;3.67;;;;;19.28;44.24;97768.81;4900561;28;105555;-75
2021/05/15 11:20:55;;;;;;;;;3.00;2.67;;;;;19.30;42.72;97763.88;4916845;28;103477;-76
2021/05/15 11:23:23;;;;;;;;;3.00;2.33;;;;;19.31;42.09;97757.31;4894247;28;102435;-76
2021/05/15 11:25:58;;;;;;;;;3.00;3.00;;;;;19.32;42.92;97758.91;4935184;28;102237;-76
2021/05/15 11:28:27;;;;;;;;;3.00;3.00;;;;;19.34;43.49;97751.25;4919327;28;104220;-76
2021/05/15 11:30:54;;;;;;;;;4.00;3.00;;;;;19.35;42.89;97743.84;4920123;28;102531;-75
2021/05/15 11:33:22;;;;;;;;;4.00;4.00;;;;;19.38;42.52;97744.13;4928367;28;104569;-76